Time;durP1;ratioP1;P1;durP2;ratioP2;P2;SDS_P1;SDS_P2;PMS_P1;PMS_P2;Temp;Humidity;BMP_temperature;BMP_pressure;BME280_temperature;BME280_humidity;BME280_pressure;Samples;Min_cycle;Max_cycle;Signal;HPM_P1;HPM_P2
2024/01/30 00:02:45;;;;;;;8.30;5.93;;;;;;;;;;4935918;29;20627;-90
2024/01/30 00:05:50;;;;;;;10.73;6.63;;;;;;;;;;4946290;29;20539;-90
2024/01/30 00:08:54;;;;;;;10.57;6.83;;;;;;;;;;4934946;29;21116;-90
2024/01/30 00:11:58;;;;;;;10.93;7.13;;;;;;;;;;4946236;29;20631;-90
2024/01/30 00:15:04;;;;;;;12.67;7.03;;;;;;;;;;4934963;29;20536;-90
2024/01/30 00:18:09;;;;;;;14.27;7.27;;;;;;;;;;4935128;29;20543;-90
2024/01/30 00:21:13;;;;;;;12.60;6.73;;;;;;;;;;4935167;29;20623;-90
2024/01/30 00:24:20;;;;;;;12.23;7.47;;;;;;;;;;4934822;29;20548;-90
2024/01/30 00:27:26;;;;;;;11.30;7.87;;;;;;;;;;4945878;29;20595;-90
2024/01/30 00:30:30;;;;;;;11.37;6.50;;;;;;;;;;4957293;29;20555;-90
2024/01/30 00:33:34;;;;;;;12.97;6.83;;;;;;;;;;4946524;29;20552;-90
2024/01/30 00:36:38;;;;;;;13.00;7.30;;;;;;;;;;4957628;29;20930;-90
2024/01/30 00:39:43;;;;;;;12.43;7.00;;;;;;;;;;4956979;29;20548;-90
2024/01/30 00:42:46;;;;;;;12.73;6.97;;;;;;;;;;4946185;29;21207;-90
2024/01/30 00:45:54;;;;;;;12.20;7.43;;;;;;;;;;4934855;29;20543;-90
2024/01/30 00:48:58;;;;;;;9.93;6.80;;;;;;;;;;4934715;29;20536;-90
2024/01/30 00:52:04;;;;;;;12.50;6.83;;;;;;;;;;4945486;29;20627;-90
2024/01/30 00:55:08;;;;;;;10.80;6.63;;;;;;;;;;4934707;29;20560;-90
2024/01/30 00:58:13;;;;;;;13.13;7.23;;;;;;;;;;4934783;29;20536;-90
2024/01/30 01:01:17;;;;;;;13.73;6.87;;;;;;;;;;4934777;29;20614;-91
2024/01/30 01:04:21;;;;;;;10.40;6.60;;;;;;;;;;4956770;29;20889;-90
2024/01/30 01:07:28;;;;;;;11.77;6.93;;;;;;;;;;4934457;29;20977;-91
2024/01/30 01:10:32;;;;;;;12.60;7.33;;;;;;;;;;4926390;29;20547;-90
2024/01/30 01:13:36;;;;;;;12.10;7.83;;;;;;;;;;4938305;29;21199;-90
2024/01/30 01:16:40;;;;;;;12.90;7.90;;;;;;;;;;4961004;29;20559;-90
2024/01/30 01:19:44;;;;;;;15.27;8.60;;;;;;;;;;4937995;29;20551;-90
2024/01/30 01:22:49;;;;;;;15.50;8.73;;;;;;;;;;4948665;29;20965;-90
2024/01/30 01:25:53;;;;;;;17.73;9.13;;;;;;;;;;4960016;29;20544;-90
2024/01/30 01:28:59;;;;;;;18.50;9.03;;;;;;;;;;4948711;29;20531;-90
2024/01/30 01:32:03;;;;;;;12.70;8.17;;;;;;;;;;4937250;29;20622;-91
2024/01/30 01:35:07;;;;;;;14.90;8.70;;;;;;;;;;4937660;29;20548;-90
2024/01/30 01:38:11;;;;;;;14.80;8.63;;;;;;;;;;4938334;29;20543;-90
2024/01/30 01:41:16;;;;;;;16.83;8.40;;;;;;;;;;4948033;29;20623;-90
2024/01/30 01:44:20;;;;;;;12.60;7.17;;;;;;;;;;4937224;29;20539;-90
2024/01/30 01:47:24;;;;;;;19.93;7.87;;;;;;;;;;4948607;29;20595;-90
2024/01/30 01:50:28;;;;;;;13.43;7.73;;;;;;;;;;4937416;29;20548;-90
2024/01/30 01:53:33;;;;;;;13.77;7.83;;;;;;;;;;4937791;29;20890;-91
2024/01/30 01:56:42;;;;;;;14.20;8.27;;;;;;;;;;4949060;29;20556;-91
2024/01/30 01:59:46;;;;;;;12.47;7.90;;;;;;;;;;4937989;29;20556;-90
2024/01/30 02:02:51;;;;;;;11.23;7.80;;;;;;;;;;4948336;29;20619;-91
2024/01/30 02:05:56;;;;;;;11.90;7.57;;;;;;;;;;4948137;29;21104;-91
2024/01/30 02:09:00;;;;;;;13.77;7.63;;;;;;;;;;4948425;29;20540;-90
2024/01/30 02:12:04;;;;;;;13.60;8.20;;;;;;;;;;4948710;29;20626;-90
2024/01/30 02:15:13;;;;;;;9.97;7.53;;;;;;;;;;4948455;29;20560;-90
2024/01/30 02:18:21;;;;;;;13.57;7.27;;;;;;;;;;4949019;29;20540;-90
2024/01/30 02:21:39;;;;;;;11.90;7.30;;;;;;;;;;4959196;28;20635;-91
2024/01/30 02:24:43;;;;;;;18.07;7.97;;;;;;;;;;4936643;29;20551;-90
2024/01/30 02:27:48;;;;;;;12.17;7.47;;;;;;;;;;4937192;29;20595;-90
2024/01/30 02:30:52;;;;;;;12.90;7.57;;;;;;;;;;4936770;29;20551;-90
2024/01/30 02:33:56;;;;;;;15.77;8.80;;;;;;;;;;4926573;29;20547;-90
2024/01/30 02:37:01;;;;;;;15.37;8.53;;;;;;;;;;4937098;29;21123;-90
2024/01/30 02:40:06;;;;;;;11.77;8.13;;;;;;;;;;4947909;29;20543;-90
2024/01/30 02:43:11;;;;;;;12.50;8.60;;;;;;;;;;4959212;29;20544;-90
2024/01/30 02:46:15;;;;;;;13.53;8.20;;;;;;;;;;4936278;29;20556;-90
2024/01/30 02:49:20;;;;;;;14.03;8.20;;;;;;;;;;4947549;29;20536;-90
2024/01/30 02:52:24;;;;;;;14.07;8.10;;;;;;;;;;4935926;29;20619;-90
2024/01/30 02:55:28;;;;;;;14.80;9.13;;;;;;;;;;4946906;29;20882;-90
2024/01/30 02:58:33;;;;;;;16.13;8.80;;;;;;;;;;4946979;29;21056;-91
2024/01/30 03:01:44;;;;;;;13.43;9.10;;;;;;;;;;4946773;29;20626;-90
2024/01/30 03:04:48;;;;;;;13.57;8.93;;;;;;;;;;4946419;29;20536;-90
2024/01/30 03:07:52;;;;;;;16.80;8.20;;;;;;;;;;4935137;29;20611;-90
2024/01/30 03:10:56;;;;;;;13.07;8.73;;;;;;;;;;4957502;29;20568;-91
2024/01/30 03:14:01;;;;;;;14.43;8.90;;;;;;;;;;4947801;29;20622;-91
2024/01/30 03:17:05;;;;;;;13.77;9.73;;;;;;;;;;4946320;29;20564;-90
2024/01/30 03:20:09;;;;;;;16.73;9.77;;;;;;;;;;4957178;29;20548;-90
2024/01/30 03:23:13;;;;;;;13.43;9.60;;;;;;;;;;4956898;29;20551;-91
2024/01/30 03:26:19;;;;;;;17.77;10.23;;;;;;;;;;4946579;29;21094;-90
2024/01/30 03:29:26;;;;;;;17.50;10.23;;;;;;;;;;4935513;29;20539;-90
2024/01/30 03:32:30;;;;;;;18.47;10.43;;;;;;;;;;4945423;28;20630;-90
2024/01/30 03:35:35;;;;;;;16.23;10.27;;;;;;;;;;4934941;29;20551;-90
2024/01/30 03:38:40;;;;;;;17.10;9.90;;;;;;;;;;4957566;29;20551;-90
2024/01/30 03:42:04;;;;;;;13.63;9.63;;;;;;;;;;4945207;29;21232;-91
2024/01/30 03:45:10;;;;;;;15.70;9.83;;;;;;;;;;4956780;29;20571;-90
2024/01/30 03:48:15;;;;;;;16.73;10.00;;;;;;;;;;4957845;29;20599;-90
2024/01/30 03:51:19;;;;;;;16.17;10.40;;;;;;;;;;4934943;29;20638;-90
2024/01/30 03:54:23;;;;;;;21.97;11.13;;;;;;;;;;4945751;29;20559;-90
2024/01/30 03:57:27;;;;;;;17.00;10.63;;;;;;;;;;4945623;29;20563;-90
2024/01/30 04:00:32;;;;;;;14.70;10.13;;;;;;;;;;4946029;29;20582;-90
2024/01/30 04:03:36;;;;;;;15.13;10.23;;;;;;;;;;4945200;29;20558;-90
2024/01/30 04:06:40;;;;;;;15.70;10.27;;;;;;;;;;4934282;29;20570;-90
2024/01/30 04:09:46;;;;;;;16.00;9.80;;;;;;;;;;4945355;29;20539;-90
2024/01/30 04:12:54;;;;;;;14.47;9.90;;;;;;;;;;4934413;29;20639;-87
2024/01/30 04:16:01;;;;;;;16.37;9.80;;;;;;;;;;4956280;29;20540;-87
2024/01/30 04:19:05;;;;;;;19.37;10.43;;;;;;;;;;4945650;29;20556;-87
2024/01/30 04:22:10;;;;;;;14.77;9.50;;;;;;;;;;4933992;29;21217;-87
2024/01/30 04:25:14;;;;;;;14.73;9.20;;;;;;;;;;4956153;29;20552;-88
2024/01/30 04:28:18;;;;;;;13.27;8.90;;;;;;;;;;4944811;29;20599;-87
2024/01/30 04:31:22;;;;;;;15.27;9.47;;;;;;;;;;4956070;29;20631;-87
2024/01/30 04:34:27;;;;;;;13.17;8.70;;;;;;;;;;4956939;29;20551;-87
2024/01/30 04:37:31;;;;;;;13.57;9.40;;;;;;;;;;4956086;29;20563;-88
2024/01/30 04:40:35;;;;;;;13.43;9.17;;;;;;;;;;4934812;29;20540;-87
2024/01/30 04:43:39;;;;;;;21.13;9.80;;;;;;;;;;4934530;28;20539;-87
2024/01/30 04:46:43;;;;;;;16.97;10.03;;;;;;;;;;4948868;29;20548;-87
2024/01/30 04:49:47;;;;;;;17.10;10.07;;;;;;;;;;4948883;29;20547;-88
2024/01/30 04:52:51;;;;;;;14.53;10.13;;;;;;;;;;4937657;29;20626;-87
2024/01/30 04:55:55;;;;;;;14.03;9.53;;;;;;;;;;4960001;29;20570;-87
2024/01/30 04:58:59;;;;;;;11.97;9.30;;;;;;;;;;4948416;29;20882;-87
2024/01/30 05:02:04;;;;;;;14.70;9.57;;;;;;;;;;4948206;29;20622;-87
2024/01/30 05:05:08;;;;;;;13.07;9.40;;;;;;;;;;4948596;29;20547;-87
2024/01/30 05:08:12;;;;;;;15.50;9.50;;;;;;;;;;4960471;29;20599;-87
2024/01/30 05:11:16;;;;;;;18.27;11.13;;;;;;;;;;4959328;29;21223;-87
2024/01/30 05:14:20;;;;;;;18.03;10.97;;;;;;;;;;4959333;29;20633;-87
2024/01/30 05:17:25;;;;;;;17.03;10.67;;;;;;;;;;4948492;29;20889;-87
2024/01/30 05:20:30;;;;;;;21.50;10.83;;;;;;;;;;4948324;29;20554;-88
2024/01/30 05:23:34;;;;;;;16.27;10.27;;;;;;;;;;4937524;29;20928;-87
2024/01/30 05:26:38;;;;;;;19.10;10.97;;;;;;;;;;4927056;29;21099;-87
2024/01/30 05:29:44;;;;;;;16.27;11.07;;;;;;;;;;4937649;29;20606;-87
2024/01/30 05:32:48;;;;;;;16.83;10.83;;;;;;;;;;4959427;29;20629;-87
2024/01/30 05:35:54;;;;;;;14.90;9.87;;;;;;;;;;4948210;29;20570;-88
2024/01/30 05:38:58;;;;;;;16.57;10.53;;;;;;;;;;4926633;29;20543;-88
2024/01/30 05:42:03;;;;;;;19.37;10.10;;;;;;;;;;4947937;29;20633;-87
2024/01/30 05:45:28;;;;;;;17.10;10.60;;;;;;;;;;4945628;29;20574;-88
2024/01/30 05:48:39;;;;;;;15.73;10.63;;;;;;;;;;4942101;29;20602;-88
2024/01/30 05:51:46;;;;;;;20.23;10.10;;;;;;;;;;4942510;29;20634;-88
2024/01/30 05:55:24;;;;;;;16.90;10.63;;;;;;;;;;4953646;28;20554;-88
2024/01/30 05:58:30;;;;;;;15.67;10.37;;;;;;;;;;4959270;29;20547;-87
2024/01/30 06:01:34;;;;;;;16.50;10.57;;;;;;;;;;4937249;29;21197;-87
2024/01/30 06:04:38;;;;;;;15.13;9.57;;;;;;;;;;4936881;29;20555;-88
2024/01/30 06:07:42;;;;;;;17.43;11.27;;;;;;;;;;4948444;29;20559;-87
2024/01/30 06:10:47;;;;;;;14.77;10.70;;;;;;;;;;4936795;29;20551;-88
2024/01/30 06:13:57;;;;;;;15.20;9.17;;;;;;;;;;4958236;29;20634;-87
2024/01/30 06:17:01;;;;;;;18.57;11.20;;;;;;;;;;4958086;29;20540;-87
2024/01/30 06:20:06;;;;;;;16.67;11.20;;;;;;;;;;4936197;29;20546;-88
2024/01/30 06:23:10;;;;;;;16.57;10.63;;;;;;;;;;4958253;29;20570;-87
2024/01/30 06:26:14;;;;;;;16.20;10.80;;;;;;;;;;4947844;29;20543;-87
2024/01/30 06:29:18;;;;;;;17.10;10.77;;;;;;;;;;4937236;29;20606;-88
2024/01/30 06:32:23;;;;;;;15.10;9.27;;;;;;;;;;4937894;29;20629;-87
2024/01/30 06:35:28;;;;;;;16.07;10.13;;;;;;;;;;4936621;29;20569;-87
2024/01/30 06:38:32;;;;;;;18.67;11.30;;;;;;;;;;4947572;29;20543;-87
2024/01/30 06:41:37;;;;;;;16.43;10.60;;;;;;;;;;4935808;29;20633;-87
2024/01/30 06:44:41;;;;;;;20.07;11.47;;;;;;;;;;4946838;29;20554;-87
2024/01/30 06:47:46;;;;;;;18.50;11.43;;;;;;;;;;4936573;29;20551;-87
2024/01/30 06:50:50;;;;;;;20.20;11.67;;;;;;;;;;4935254;29;20897;-87
2024/01/30 06:53:54;;;;;;;18.30;11.47;;;;;;;;;;4935118;29;20602;-88
2024/01/30 06:56:58;;;;;;;18.13;10.33;;;;;;;;;;4935934;29;20550;-85
2024/01/30 07:00:06;;;;;;;16.80;11.23;;;;;;;;;;4959372;29;20562;-88
2024/01/30 07:03:10;;;;;;;23.47;12.23;;;;;;;;;;4935305;29;20562;-86
2024/01/30 07:06:15;;;;;;;18.07;11.40;;;;;;;;;;4935408;29;20559;-88
2024/01/30 07:09:19;;;;;;;15.23;10.23;;;;;;;;;;4946446;29;21308;-87
2024/01/30 07:12:26;;;;;;;17.57;11.47;;;;;;;;;;4935567;29;20708;-87
2024/01/30 07:15:31;;;;;;;18.60;11.50;;;;;;;;;;4947556;29;20559;-87
2024/01/30 07:18:35;;;;;;;14.77;10.17;;;;;;;;;;4948501;29;20555;-86
2024/01/30 07:21:40;;;;;;;17.87;11.63;;;;;;;;;;4947796;29;20634;-87
2024/01/30 07:24:45;;;;;;;21.37;11.83;;;;;;;;;;4946220;29;20555;-88
2024/01/30 07:27:49;;;;;;;17.50;11.33;;;;;;;;;;4946030;29;20901;-88
2024/01/30 07:30:54;;;;;;;17.77;10.60;;;;;;;;;;4935147;29;20539;-88
2024/01/30 07:33:58;;;;;;;16.00;11.20;;;;;;;;;;4925557;29;20564;-87
2024/01/30 07:37:02;;;;;;;20.27;10.97;;;;;;;;;;4936477;29;20546;-89
2024/01/30 07:40:07;;;;;;;16.93;10.80;;;;;;;;;;4946223;29;20547;-87
2024/01/30 07:43:11;;;;;;;17.70;11.33;;;;;;;;;;4946617;29;20551;-87
2024/01/30 07:46:16;;;;;;;16.20;10.53;;;;;;;;;;4957207;29;20554;-88
2024/01/30 07:49:20;;;;;;;16.17;10.40;;;;;;;;;;4924165;29;21170;-86
2024/01/30 07:52:25;;;;;;;18.50;10.07;;;;;;;;;;4934996;29;20630;-87
2024/01/30 07:55:30;;;;;;;18.00;11.43;;;;;;;;;;4923631;29;20905;-88
2024/01/30 07:58:35;;;;;;;18.50;12.67;;;;;;;;;;4934288;29;20567;-88
2024/01/30 08:01:38;;;;;;;17.07;10.90;;;;;;;;;;4934051;29;20630;-88
2024/01/30 08:04:43;;;;;;;15.87;11.10;;;;;;;;;;4945528;29;20540;-88
2024/01/30 08:07:47;;;;;;;19.10;11.67;;;;;;;;;;4935021;29;20544;-88
2024/01/30 08:10:52;;;;;;;16.73;11.00;;;;;;;;;;4934047;29;20536;-88
2024/01/30 08:13:56;;;;;;;17.60;10.90;;;;;;;;;;4934892;29;20615;-88
2024/01/30 08:17:00;;;;;;;14.13;10.17;;;;;;;;;;4945520;29;20902;-87
2024/01/30 08:20:05;;;;;;;19.67;10.90;;;;;;;;;;4933819;29;20540;-87
2024/01/30 08:23:35;;;;;;;15.90;10.53;;;;;;;;;;4934613;29;20552;-91
2024/01/30 08:26:40;;;;;;;17.40;10.83;;;;;;;;;;4923343;29;20534;-90
2024/01/30 08:29:44;;;;;;;17.50;10.77;;;;;;;;;;4922586;29;21175;-89
2024/01/30 08:32:48;;;;;;;16.80;11.03;;;;;;;;;;4933775;29;20966;-88
2024/01/30 08:35:52;;;;;;;16.70;10.20;;;;;;;;;;4933821;29;20543;-87
2024/01/30 08:38:57;;;;;;;14.03;9.93;;;;;;;;;;4933808;29;20543;-88
2024/01/30 08:42:03;;;;;;;14.27;9.73;;;;;;;;;;4943993;29;20627;-88
2024/01/30 08:45:08;;;;;;;15.57;9.87;;;;;;;;;;4944779;29;20539;-88
2024/01/30 08:48:12;;;;;;;17.17;10.53;;;;;;;;;;4933576;29;20552;-88
2024/01/30 08:51:16;;;;;;;15.07;9.60;;;;;;;;;;4955595;29;20607;-89
2024/01/30 08:54:21;;;;;;;15.03;9.60;;;;;;;;;;4949452;29;20560;-88
2024/01/30 08:57:28;;;;;;;14.70;10.17;;;;;;;;;;4937661;28;20555;-89
2024/01/30 09:00:32;;;;;;;15.57;9.83;;;;;;;;;;4949410;29;21076;-88
2024/01/30 09:03:39;;;;;;;16.33;9.57;;;;;;;;;;4949065;29;20192;-88
2024/01/30 09:06:44;;;;;;;14.13;9.70;;;;;;;;;;4937846;29;20655;-89
2024/01/30 09:09:49;;;;;;;14.57;10.23;;;;;;;;;;4948977;29;20219;-89
2024/01/30 09:12:53;;;;;;;15.07;10.07;;;;;;;;;;4937971;29;20239;-89
2024/01/30 09:15:57;;;;;;;17.20;10.90;;;;;;;;;;4949053;29;20192;-88
2024/01/30 09:19:01;;;;;;;15.03;10.07;;;;;;;;;;4937992;29;20188;-89
2024/01/30 09:22:06;;;;;;;14.33;10.67;;;;;;;;;;4937821;29;20589;-89
2024/01/30 09:25:10;;;;;;;14.57;9.83;;;;;;;;;;4948839;29;20191;-86
2024/01/30 09:28:14;;;;;;;16.37;11.10;;;;;;;;;;4949108;29;20184;-86
2024/01/30 09:31:18;;;;;;;14.13;10.50;;;;;;;;;;4962797;28;20215;-89
2024/01/30 09:34:23;;;;;;;15.57;10.77;;;;;;;;;;4944283;29;20195;-89
2024/01/30 09:37:27;;;;;;;16.17;10.90;;;;;;;;;;4945115;29;20191;-90
2024/01/30 09:40:32;;;;;;;16.70;10.83;;;;;;;;;;4945494;29;20188;-89
2024/01/30 09:43:37;;;;;;;15.40;10.60;;;;;;;;;;4955912;29;20187;-90
2024/01/30 09:46:43;;;;;;;16.20;10.20;;;;;;;;;;4946947;29;20179;-89
2024/01/30 09:49:48;;;;;;;18.60;10.60;;;;;;;;;;4946539;29;20220;-89
2024/01/30 09:52:55;;;;;;;14.17;10.33;;;;;;;;;;4945836;29;20219;-90
2024/01/30 09:56:01;;;;;;;14.43;10.20;;;;;;;;;;4956540;29;20192;-90
2024/01/30 09:59:06;;;;;;;15.03;9.73;;;;;;;;;;4967025;29;20183;-91
2024/01/30 10:02:10;;;;;;;17.37;10.80;;;;;;;;;;4944365;29;20231;-91
2024/01/30 10:05:18;;;;;;;14.97;9.80;;;;;;;;;;4944753;29;20195;-90
2024/01/30 10:08:22;;;;;;;16.43;10.13;;;;;;;;;;4943996;29;20184;-90
2024/01/30 12:29:29;;;;;;;7.57;5.00;;;;;;;;;;4996576;28;20218;-89
2024/01/30 12:38:33;;;;;;;7.93;5.80;;;;;;;;;;4987113;28;20179;-86
2024/01/30 12:41:37;;;;;;;8.97;5.03;;;;;;;;;;4955410;28;20214;-88
2024/01/30 12:45:13;;;;;;;10.67;5.63;;;;;;;;;;4955734;28;20186;-93
2024/01/30 12:48:17;;;;;;;10.50;6.13;;;;;;;;;;4958992;28;20633;-91
2024/01/30 12:51:22;;;;;;;10.20;6.70;;;;;;;;;;4955314;28;20703;-91
2024/01/30 12:54:49;;;;;;;8.03;4.77;;;;;;;;;;4950540;28;20187;-92
2024/01/30 12:57:52;;;;;;;7.90;4.63;;;;;;;;;;4957129;28;20187;-92
2024/01/30 13:00:57;;;;;;;6.47;4.43;;;;;;;;;;4949047;28;20183;-91
2024/01/30 13:04:01;;;;;;;6.27;4.50;;;;;;;;;;4957219;28;20191;-89
2024/01/30 13:07:06;;;;;;;7.33;4.70;;;;;;;;;;4961232;28;20190;-90
2024/01/30 13:10:11;;;;;;;8.50;4.87;;;;;;;;;;4948304;28;20187;-87
2024/01/30 13:18:37;;;;;;;6.50;4.80;;;;;;;;;;4978690;28;20645;-93
2024/01/30 14:40:27;;;;;;;13.27;8.70;;;;;;;;;;1213576;23;21833;-87
2024/01/30 14:43:33;;;;;;;11.63;8.93;;;;;;;;;;4853189;29;20218;-89
2024/01/30 14:47:15;;;;;;;11.87;8.73;;;;;;;;;;4865776;29;20183;-90
2024/01/30 14:52:03;;;;;;;12.43;8.80;;;;;;;;;;4854227;29;20211;-91
2024/01/30 14:57:00;;;;;;;;;;;;;;;;;;;;;
2024/01/30 15:06:04;;;;;;;12.67;9.70;;;;;;;;;;4858218;29;20210;-84
2024/01/30 15:10:01;;;;;;;10.67;8.07;;;;;;;;;;4865851;29;20174;-89
2024/01/30 15:13:34;;;;;;;11.13;7.73;;;;;;;;;;4842897;29;20222;-89
2024/01/30 15:16:39;;;;;;;13.23;7.70;;;;;;;;;;4863767;29;20637;-89
2024/01/30 15:19:43;;;;;;;13.87;8.60;;;;;;;;;;4853598;29;20195;-89
2024/01/30 15:22:54;;;;;;;11.50;8.43;;;;;;;;;;4843103;29;20227;-89
2024/01/30 15:26:02;;;;;;;11.00;7.80;;;;;;;;;;4852331;29;20195;-89
2024/01/30 15:29:07;;;;;;;14.17;8.87;;;;;;;;;;4853176;29;20199;-88
2024/01/30 15:32:11;;;;;;;12.50;8.93;;;;;;;;;;4853059;29;20238;-91
2024/01/30 15:35:21;;;;;;;9.43;7.53;;;;;;;;;;4863503;29;20198;-89
2024/01/30 15:38:37;;;;;;;11.33;8.60;;;;;;;;;;4833863;29;20187;-88
2024/01/30 15:41:47;;;;;;;11.90;8.20;;;;;;;;;;4842390;29;20577;-88
2024/01/30 15:44:51;;;;;;;11.70;7.87;;;;;;;;;;4853294;29;20199;-90
2024/01/30 15:48:14;;;;;;;11.40;7.83;;;;;;;;;;4852736;29;20199;-89
2024/01/30 15:51:36;;;;;;;13.67;8.13;;;;;;;;;;4842536;29;20589;-88
2024/01/30 15:55:14;;;;;;;12.13;8.23;;;;;;;;;;4853255;29;20191;-91
2024/01/30 15:58:49;;;;;;;10.03;7.57;;;;;;;;;;4864467;29;20190;-89
2024/01/30 16:01:54;;;;;;;13.23;8.87;;;;;;;;;;4854124;29;20222;-90
2024/01/30 16:05:03;;;;;;;14.00;9.77;;;;;;;;;;4855993;29;20214;-92
2024/01/30 16:08:08;;;;;;;14.37;9.73;;;;;;;;;;4843770;29;20530;-89
2024/01/30 16:11:12;;;;;;;15.17;10.00;;;;;;;;;;4864283;29;20231;-88
2024/01/30 16:14:36;;;;;;;15.07;10.40;;;;;;;;;;4848865;29;20195;-89
2024/01/30 16:18:03;;;;;;;13.53;9.47;;;;;;;;;;4857452;29;20199;-88
2024/01/30 16:21:29;;;;;;;18.47;10.23;;;;;;;;;;4855608;29;20223;-87
2024/01/30 16:24:56;;;;;;;16.50;11.73;;;;;;;;;;4848787;29;20203;-87
2024/01/30 16:28:19;;;;;;;17.60;13.00;;;;;;;;;;4848009;29;20187;-87
2024/01/30 16:31:48;;;;;;;15.40;10.80;;;;;;;;;;4856551;29;20234;-87
2024/01/30 16:35:17;;;;;;;16.60;10.87;;;;;;;;;;4849304;29;20195;-86
2024/01/30 16:38:43;;;;;;;19.50;11.33;;;;;;;;;;4848429;29;20199;-88
2024/01/30 16:42:09;;;;;;;17.97;12.03;;;;;;;;;;4868081;29;20227;-88
2024/01/30 16:45:35;;;;;;;17.27;11.50;;;;;;;;;;4852237;29;20195;-89
2024/01/30 16:48:59;;;;;;;14.43;10.70;;;;;;;;;;4867585;29;20191;-90
2024/01/30 16:52:25;;;;;;;16.70;10.10;;;;;;;;;;4852156;29;20238;-90
2024/01/30 16:55:57;;;;;;;15.50;9.53;;;;;;;;;;4862350;29;20649;-92
2024/01/30 16:59:27;;;;;;;16.93;10.07;;;;;;;;;;4852491;29;20191;-89
2024/01/30 17:02:50;;;;;;;15.10;10.60;;;;;;;;;;4860241;29;20227;-90
2024/01/30 17:06:22;;;;;;;19.03;10.60;;;;;;;;;;4852967;29;20190;-90
2024/01/30 17:09:54;;;;;;;13.00;9.47;;;;;;;;;;4853276;29;20198;-90
2024/01/30 17:13:32;;;;;;;13.47;10.10;;;;;;;;;;4860703;29;20219;-91
2024/01/30 17:16:55;;;;;;;17.13;10.73;;;;;;;;;;4868531;29;20203;-90
2024/01/30 17:20:23;;;;;;;13.87;10.20;;;;;;;;;;4860486;29;20195;-89
2024/01/30 17:23:48;;;;;;;15.33;9.60;;;;;;;;;;4857088;29;20195;-90
2024/01/30 17:27:14;;;;;;;14.40;8.90;;;;;;;;;;4867165;29;20199;-89
2024/01/30 17:30:43;;;;;;;13.10;9.00;;;;;;;;;;4867980;29;20198;-89
2024/01/30 17:34:07;;;;;;;14.87;8.70;;;;;;;;;;4851217;29;20179;-88
2024/01/30 17:37:38;;;;;;;11.40;7.67;;;;;;;;;;4860104;29;20537;-88
2024/01/30 17:41:01;;;;;;;13.30;8.50;;;;;;;;;;4858974;29;20214;-88
2024/01/30 17:44:32;;;;;;;11.67;7.87;;;;;;;;;;4867449;29;20195;-88
2024/01/30 17:47:57;;;;;;;11.07;7.23;;;;;;;;;;4851134;29;20529;-88
2024/01/30 17:51:23;;;;;;;12.67;8.20;;;;;;;;;;4866898;29;20234;-87
2024/01/30 17:54:49;;;;;;;11.83;8.43;;;;;;;;;;4858532;29;20195;-87
2024/01/30 17:58:12;;;;;;;12.60;8.83;;;;;;;;;;4859028;29;20199;-87
2024/01/30 18:01:16;;;;;;;11.27;7.73;;;;;;;;;;4835370;29;20231;-86
2024/01/30 18:04:20;;;;;;;13.20;8.37;;;;;;;;;;4855834;29;20286;-88
2024/01/30 18:07:25;;;;;;;16.87;9.07;;;;;;;;;;4845643;29;20232;-88
2024/01/30 18:10:31;;;;;;;13.17;9.57;;;;;;;;;;4856565;29;20191;-88
2024/01/30 18:13:37;;;;;;;10.93;8.70;;;;;;;;;;4867161;29;20215;-87
2024/01/30 18:16:41;;;;;;;12.97;8.17;;;;;;;;;;4866708;29;20195;-87
2024/01/30 18:19:47;;;;;;;11.13;7.90;;;;;;;;;;4866779;29;20530;-87
2024/01/30 18:22:52;;;;;;;10.37;7.90;;;;;;;;;;4865856;29;20693;-87
2024/01/30 18:25:59;;;;;;;11.33;7.77;;;;;;;;;;4833963;29;20191;-87
2024/01/30 18:29:04;;;;;;;14.90;8.63;;;;;;;;;;4844532;29;20191;-88
2024/01/30 18:32:08;;;;;;;12.30;8.87;;;;;;;;;;4865660;29;20234;-87
2024/01/30 18:35:13;;;;;;;12.97;8.77;;;;;;;;;;4856471;29;20203;-87
2024/01/30 18:38:17;;;;;;;14.53;9.23;;;;;;;;;;4856349;29;20187;-91
2024/01/30 18:41:21;;;;;;;13.53;8.57;;;;;;;;;;4865890;29;20242;-91
2024/01/30 18:44:25;;;;;;;15.10;9.20;;;;;;;;;;4865784;29;20183;-91
2024/01/30 18:47:31;;;;;;;12.93;8.93;;;;;;;;;;4849213;29;20195;-91
2024/01/30 18:50:36;;;;;;;14.57;9.70;;;;;;;;;;4844652;29;20191;-91
2024/01/30 18:53:42;;;;;;;14.23;10.13;;;;;;;;;;4858731;29;20215;-91
2024/01/30 18:56:50;;;;;;;16.63;11.30;;;;;;;;;;4849265;29;20526;-91
2024/01/30 19:00:04;;;;;;;21.00;12.67;;;;;;;;;;4849189;29;20187;-91
2024/01/30 19:03:09;;;;;;;24.27;15.43;;;;;;;;;;4847725;29;20223;-91
2024/01/30 19:06:13;;;;;;;23.53;15.33;;;;;;;;;;4867300;29;20199;-91
2024/01/30 19:09:26;;;;;;;22.03;14.73;;;;;;;;;;4846918;29;20191;-91
2024/01/30 19:12:31;;;;;;;26.83;16.20;;;;;;;;;;4858558;29;20227;-90
2024/01/30 19:15:45;;;;;;;27.13;15.97;;;;;;;;;;4869635;29;20199;-90
2024/01/30 19:18:59;;;;;;;26.83;16.27;;;;;;;;;;4872611;29;20187;-91
2024/01/30 19:22:04;;;;;;;29.37;15.80;;;;;;;;;;4860843;29;20215;-90
2024/01/30 19:25:09;;;;;;;24.87;15.83;;;;;;;;;;4844639;29;20195;-90
2024/01/30 19:28:13;;;;;;;26.13;16.07;;;;;;;;;;4865843;29;20195;-91
2024/01/30 19:31:17;;;;;;;27.37;15.00;;;;;;;;;;4844651;29;20222;-90
2024/01/30 19:34:22;;;;;;;21.43;13.77;;;;;;;;;;4843982;29;20179;-90
2024/01/30 19:37:26;;;;;;;21.30;13.30;;;;;;;;;;4855246;29;20206;-90
2024/01/30 19:40:30;;;;;;;19.03;12.70;;;;;;;;;;4844329;29;20253;-90
2024/01/30 19:43:35;;;;;;;19.90;11.33;;;;;;;;;;4854459;29;20187;-90
2024/01/30 19:46:39;;;;;;;24.13;15.40;;;;;;;;;;4843286;29;20190;-91
2024/01/30 19:49:43;;;;;;;26.20;15.80;;;;;;;;;;4865611;29;20199;-90
2024/01/30 19:52:48;;;;;;;26.03;16.97;;;;;;;;;;4844431;29;20659;-90
2024/01/30 19:55:52;;;;;;;26.60;16.17;;;;;;;;;;4844209;29;20207;-90
2024/01/30 19:58:56;;;;;;;27.37;16.80;;;;;;;;;;4853945;29;20548;-90
2024/01/30 20:02:03;;;;;;;29.47;17.23;;;;;;;;;;4853803;29;20226;-90
2024/01/30 20:05:07;;;;;;;25.60;14.90;;;;;;;;;;4853775;29;20190;-90
2024/01/30 20:08:15;;;;;;;26.33;15.93;;;;;;;;;;4844078;29;20187;-90
2024/01/30 20:11:19;;;;;;;28.30;15.80;;;;;;;;;;4854590;29;20226;-90
2024/01/30 20:14:24;;;;;;;23.23;14.80;;;;;;;;;;4853175;29;20541;-90
2024/01/30 20:17:28;;;;;;;24.57;14.70;;;;;;;;;;4866830;29;20194;-90
2024/01/30 20:20:33;;;;;;;24.40;13.80;;;;;;;;;;4866007;29;20552;-90
2024/01/30 20:23:38;;;;;;;22.03;12.97;;;;;;;;;;4855874;29;20887;-91
2024/01/30 20:26:44;;;;;;;21.17;13.50;;;;;;;;;;4865678;29;20198;-90
2024/01/30 20:29:48;;;;;;;17.77;11.67;;;;;;;;;;4866831;29;20187;-90
2024/01/30 20:32:52;;;;;;;15.53;10.63;;;;;;;;;;4854348;29;20234;-90
2024/01/30 20:36:01;;;;;;;16.53;10.73;;;;;;;;;;4865819;29;20217;-91
2024/01/30 20:39:06;;;;;;;18.70;10.33;;;;;;;;;;4855009;29;20187;-90
2024/01/30 20:42:12;;;;;;;16.80;10.57;;;;;;;;;;4855509;29;20651;-90
2024/01/30 20:45:16;;;;;;;14.13;9.87;;;;;;;;;;4865199;29;20194;-90
2024/01/30 20:48:20;;;;;;;18.40;11.20;;;;;;;;;;4866032;29;20195;-90
2024/01/30 20:51:25;;;;;;;18.10;10.53;;;;;;;;;;4844597;29;20231;-90
2024/01/30 20:54:31;;;;;;;16.27;9.90;;;;;;;;;;4865068;29;20218;-90
2024/01/30 20:57:35;;;;;;;12.93;9.60;;;;;;;;;;4854879;29;20194;-91
2024/01/30 21:00:40;;;;;;;12.50;9.27;;;;;;;;;;4864576;29;20195;-90
2024/01/30 21:03:44;;;;;;;14.83;9.27;;;;;;;;;;4853784;29;20191;-90
2024/01/30 21:06:48;;;;;;;13.33;9.20;;;;;;;;;;4865150;29;20191;-90
2024/01/30 21:09:52;;;;;;;13.10;8.67;;;;;;;;;;4864291;29;20548;-90
2024/01/30 21:12:57;;;;;;;11.13;8.67;;;;;;;;;;4865893;29;20655;-91
2024/01/30 21:16:01;;;;;;;11.53;8.43;;;;;;;;;;4855039;29;20545;-91
2024/01/30 21:19:05;;;;;;;10.53;8.20;;;;;;;;;;4855017;29;20195;-89
2024/01/30 21:22:10;;;;;;;11.70;8.43;;;;;;;;;;4848447;29;20230;-92
2024/01/30 21:25:15;;;;;;;12.03;8.60;;;;;;;;;;4856208;29;20183;-92
2024/01/30 21:28:22;;;;;;;12.77;8.37;;;;;;;;;;4870194;29;20553;-91
2024/01/30 21:31:26;;;;;;;11.63;8.03;;;;;;;;;;4856795;29;20227;-90
2024/01/30 21:34:30;;;;;;;14.00;7.70;;;;;;;;;;4845915;29;20215;-90
2024/01/30 21:37:36;;;;;;;13.17;7.90;;;;;;;;;;4864148;29;20556;-90
2024/01/30 21:40:41;;;;;;;17.83;8.20;;;;;;;;;;4861275;29;20206;-86
2024/01/30 21:43:54;;;;;;;11.07;7.80;;;;;;;;;;4849454;29;20548;-86
2024/01/30 21:47:02;;;;;;;11.40;8.07;;;;;;;;;;4864497;29;20191;-89
2024/01/30 21:50:09;;;;;;;9.97;7.57;;;;;;;;;;4841694;29;20524;-90
2024/01/30 21:53:22;;;;;;;13.83;8.17;;;;;;;;;;4860701;29;20595;-90
2024/01/30 21:56:30;;;;;;;13.10;8.07;;;;;;;;;;4869535;29;20560;-90
2024/01/30 21:59:39;;;;;;;12.07;8.00;;;;;;;;;;4859123;29;20191;-91
2024/01/30 22:02:48;;;;;;;13.17;8.30;;;;;;;;;;4869544;29;20226;-90
2024/01/30 22:05:53;;;;;;;10.93;7.30;;;;;;;;;;4846733;29;20191;-89
2024/01/30 22:08:57;;;;;;;11.13;8.13;;;;;;;;;;4854998;29;20221;-90
2024/01/30 22:12:01;;;;;;;12.83;8.53;;;;;;;;;;4865280;29;20226;-90
2024/01/30 22:15:06;;;;;;;11.27;7.83;;;;;;;;;;4844246;29;20510;-89
2024/01/30 22:18:10;;;;;;;11.67;8.20;;;;;;;;;;4853819;29;20199;-86
2024/01/30 22:21:15;;;;;;;10.97;7.97;;;;;;;;;;4844090;29;20631;-88
2024/01/30 22:24:20;;;;;;;12.40;7.20;;;;;;;;;;4843166;29;20633;-86